Time;durP1;ratioP1;P1;durP2;ratioP2;P2;SDS_P1;SDS_P2;PMS_P1;PMS_P2;Temp;Humidity;BMP_temperature;BMP_pressure;BME280_temperature;BME280_humidity;BME280_pressure;Samples;Min_cycle;Max_cycle;Signal;HPM_P1;HPM_P2
2021/08/25 00:00:46;;;;;;;;;;;14.10;99.90;;;13.08;94.91;96259.03;10417728;28;2385;-77
2021/08/25 00:05:49;;;;;;;;;;;14.10;99.90;;;13.11;95.00;96254.97;10399432;28;2328;-78
2021/08/25 00:10:52;;;;;;;;;;;14.10;99.90;;;13.05;95.11;96258.78;10402993;28;2335;-79
2021/08/25 00:15:55;;;;;;;;;;;14.10;99.90;;;13.13;95.52;96260.91;10407654;28;2414;-79
2021/08/25 00:20:58;;;;;;;;;;;14.10;99.90;;;13.13;95.34;96256.31;10404083;28;2372;-78
2021/08/25 00:26:01;;;;;;;;;;;14.10;99.90;;;13.11;96.25;96252.28;10396055;28;2302;-79
2021/08/25 00:31:04;;;;;;;;;;;14.10;99.90;;;13.10;97.35;96245.25;10414587;28;2365;-80
2021/08/25 00:36:06;;;;;;;;;;;14.10;99.90;;;13.06;98.14;96241.50;10397332;28;2295;-80
2021/08/25 00:41:09;;;;;;;;;;;14.10;99.90;;;13.05;99.12;96248.00;10400572;28;2327;-79
2021/08/25 00:46:13;;;;;;;;;;;14.10;99.90;;;13.07;100.00;96235.03;10395385;28;2361;-77
2021/08/25 00:51:16;;;;;;;;;;;14.10;99.90;;;12.99;100.00;96248.00;10409418;28;2256;-81
2021/08/25 00:56:19;;;;;;;;;;;14.10;99.90;;;12.93;100.00;96242.91;10397619;28;2088;-78
2021/08/25 01:01:22;;;;;;;;;;;14.00;99.90;;;12.88;100.00;96241.03;10390763;28;2521;-79
2021/08/25 01:06:25;;;;;;;;;;;13.90;99.90;;;12.88;100.00;96248.31;10402982;28;2680;-77
2021/08/25 01:11:28;;;;;;;;;;;13.90;99.90;;;12.91;100.00;96245.06;10396472;28;2455;-77
2021/08/25 01:16:51;;;;;;;;;;;13.90;99.90;;;12.89;100.00;96242.66;10405865;28;2368;-78
2021/08/25 01:21:57;;;;;;;;;;;13.90;99.90;;;12.72;100.00;96239.47;10417878;28;2603;-78
2021/08/25 01:27:00;;;;;;;;;;;13.80;99.90;;;12.67;100.00;96234.13;10422822;28;1965;-76
2021/08/25 01:32:03;;;;;;;;;;;13.70;99.90;;;12.65;100.00;96228.19;10410885;28;2558;-77
2021/08/25 01:37:05;;;;;;;;;;;13.70;99.90;;;12.62;100.00;96226.03;10400477;28;2209;-78
2021/08/25 01:42:08;;;;;;;;;;;13.70;99.90;;;12.63;100.00;96224.97;10401611;28;2486;-76
2021/08/25 01:47:11;;;;;;;;;;;13.70;99.90;;;12.50;100.00;96210.16;10396066;28;2399;-76
2021/08/25 01:52:14;;;;;;;;;;;13.60;99.90;;;12.47;100.00;96209.91;10415980;28;2177;-78
2021/08/25 01:57:17;;;;;;;;;;;13.50;99.90;;;12.39;100.00;96205.88;10406492;28;2518;-78
2021/08/25 02:02:20;;;;;;;;;;;13.50;99.90;;;12.24;100.00;96201.34;10411082;28;2534;-77
2021/08/25 02:07:23;;;;;;;;;;;13.40;99.90;;;12.23;100.00;96194.34;10395160;28;2501;-77
2021/08/25 02:12:26;;;;;;;;;;;13.30;99.90;;;12.07;100.00;96181.97;10395616;28;2474;-78
2021/08/25 02:17:28;;;;;;;;;;;13.30;99.90;;;11.92;100.00;96182.00;10397881;28;2391;-76
2021/08/25 02:22:31;;;;;;;;;;;13.10;99.90;;;11.82;100.00;96170.16;10392735;28;2519;-77
2021/08/25 02:27:34;;;;;;;;;;;13.00;99.90;;;11.69;100.00;96162.59;10389076;28;2532;-79
2021/08/25 02:32:37;;;;;;;;;;;12.90;99.90;;;11.62;100.00;96157.50;10410298;28;2517;-79
2021/08/25 02:37:39;;;;;;;;;;;12.80;99.90;;;11.51;100.00;96155.88;10392772;28;2423;-77
2021/08/25 02:42:42;;;;;;;;;;;12.70;99.90;;;11.50;100.00;96164.22;10393723;28;2443;-78
2021/08/25 02:47:45;;;;;;;;;;;12.70;99.90;;;11.42;100.00;96170.16;10406585;28;2432;-76
2021/08/25 02:52:48;;;;;;;;;;;12.60;99.90;;;11.34;100.00;96169.63;10390382;28;2434;-78
2021/08/25 02:57:51;;;;;;;;;;;12.60;99.90;;;11.35;100.00;96162.34;10390944;28;2719;-77
2021/08/25 03:02:54;;;;;;;;;;;12.50;99.90;;;11.25;100.00;96168.53;10391812;28;2588;-77
2021/08/25 03:07:58;;;;;;;;;;;12.40;99.90;;;11.20;100.00;96163.16;10389049;28;2557;-77
2021/08/25 03:13:00;;;;;;;;;;;12.40;99.90;;;11.20;100.00;96165.84;10397152;28;2524;-77
2021/08/25 03:18:03;;;;;;;;;;;12.30;99.90;;;11.13;100.00;96159.91;10398651;28;3051;-77
2021/08/25 03:23:06;;;;;;;;;;;12.30;99.90;;;11.09;100.00;96161.53;10413247;28;2501;-77
2021/08/25 03:28:09;;;;;;;;;;;12.20;99.90;;;11.11;100.00;96162.06;10400019;28;2459;-77
2021/08/25 03:33:12;;;;;;;;;;;12.20;99.90;;;11.09;100.00;96158.84;10396878;28;1956;-77
2021/08/25 03:38:15;;;;;;;;;;;12.20;99.90;;;10.99;100.00;96153.44;10399893;28;2574;-79
2021/08/25 03:43:18;;;;;;;;;;;12.10;99.90;;;10.94;100.00;96143.50;10414195;28;2448;-79
2021/08/25 03:48:21;;;;;;;;;;;12.00;99.90;;;10.88;100.00;96149.09;10398227;28;2791;-78
2021/08/25 03:53:24;;;;;;;;;;;12.00;99.90;;;10.78;100.00;96145.31;10394194;28;2588;-78
2021/08/25 03:58:27;;;;;;;;;;;12.00;99.90;;;10.73;100.00;96139.94;10396439;28;2541;-79
2021/08/25 04:03:30;;;;;;;;;;;11.90;99.90;;;10.64;100.00;96146.91;10399483;28;2480;-78
2021/08/25 04:08:32;;;;;;;;;;;11.80;99.90;;;10.56;100.00;96139.38;10397424;28;2589;-79
2021/08/25 04:13:35;;;;;;;;;;;11.80;99.90;;;10.50;100.00;96140.41;10394112;28;2501;-78
2021/08/25 04:18:47;;;;;;;;;;;11.70;99.90;;;10.42;100.00;96132.84;10400051;28;2423;-79
2021/08/25 04:23:50;;;;;;;;;;;11.60;99.90;;;10.40;100.00;96132.31;10390540;28;2459;-78
2021/08/25 04:28:53;;;;;;;;;;;11.60;99.90;;;10.37;100.00;96138.19;10393459;28;2493;-79
2021/08/25 04:33:55;;;;;;;;;;;11.50;99.90;;;10.44;100.00;96144.97;10395192;28;2482;-78
2021/08/25 04:38:58;;;;;;;;;;;11.50;99.90;;;10.48;100.00;96132.59;10394688;28;2536;-78
2021/08/25 04:44:01;;;;;;;;;;;11.50;99.90;;;10.58;100.00;96137.22;10400127;28;2365;-79
2021/08/25 04:49:04;;;;;;;;;;;11.60;99.90;;;10.67;100.00;96140.19;10394167;28;2595;-78
2021/08/25 04:54:06;;;;;;;;;;;11.70;99.90;;;10.75;100.00;96132.44;10396994;28;2680;-77
2021/08/25 04:59:09;;;;;;;;;;;11.80;99.90;;;10.91;100.00;96125.19;10394291;28;2514;-78
2021/08/25 05:04:12;;;;;;;;;;;11.90;99.90;;;11.10;100.00;96133.53;10388832;28;2935;-78
2021/08/25 05:09:15;;;;;;;;;;;12.00;99.90;;;11.22;100.00;96133.28;10390404;28;2490;-78
2021/08/25 05:14:18;;;;;;;;;;;12.20;99.90;;;11.35;100.00;96130.88;10400062;28;2682;-78
2021/08/25 05:19:20;;;;;;;;;;;12.30;99.90;;;11.40;100.00;96132.75;10401334;28;2439;-77
2021/08/25 05:24:23;;;;;;;;;;;12.40;99.90;;;11.83;100.00;96131.41;10405826;28;2174;-77
2021/08/25 05:29:26;;;;;;;;;;;12.60;99.90;;;11.86;100.00;96133.53;10394490;28;2542;-78
2021/08/25 05:34:29;;;;;;;;;;;12.80;99.90;;;12.14;99.00;96142.88;10396554;28;2672;-77
2021/08/25 05:39:32;;;;;;;;;;;13.10;99.90;;;12.10;98.11;96138.31;10393064;28;2549;-78
2021/08/25 05:44:34;;;;;;;;;;;13.20;99.90;;;12.28;98.62;96137.75;10393249;28;2428;-78
2021/08/25 05:49:37;;;;;;;;;;;13.20;99.90;;;12.33;97.68;96135.00;10397238;28;2505;-77
2021/08/25 05:54:40;;;;;;;;;;;13.30;99.90;;;12.42;96.71;96133.34;10395582;28;2373;-79
2021/08/25 05:59:43;;;;;;;;;;;13.40;99.90;;;12.47;95.71;96131.72;10391111;28;2564;-78
2021/08/25 06:04:45;;;;;;;;;;;13.50;99.90;;;12.55;94.61;96136.53;10407762;28;2474;-77
2021/08/25 06:09:48;;;;;;;;;;;13.50;99.90;;;12.47;94.78;96145.19;10420062;28;2574;-77
2021/08/25 06:14:51;;;;;;;;;;;13.60;99.90;;;12.64;94.00;96145.66;10404122;28;2342;-80
2021/08/25 06:19:54;;;;;;;;;;;13.60;99.90;;;12.73;93.28;96133.22;10419911;28;2045;-78
2021/08/25 06:24:57;;;;;;;;;;;13.70;99.90;;;12.96;91.83;96131.72;10409682;28;2350;-77
2021/08/25 06:30:00;;;;;;;;;;;13.80;99.90;;;12.97;90.78;96136.03;10424978;28;2211;-78
2021/08/25 06:35:03;;;;;;;;;;;14.00;99.90;;;12.82;91.89;96136.94;10430181;28;2328;-77
2021/08/25 06:40:06;;;;;;;;;;;13.90;99.90;;;13.12;89.85;96135.94;10434324;28;2365;-80
2021/08/25 06:45:09;;;;;;;;;;;14.00;99.90;;;13.56;86.79;96128.88;10420217;28;2208;-79
2021/08/25 06:50:12;;;;;;;;;;;14.40;99.90;;;13.72;85.88;96128.44;10415521;28;2267;-80
2021/08/25 06:55:14;;;;;;;;;;;14.60;99.90;;;13.65;84.38;96110.97;10418548;28;2290;-78
2021/08/25 07:00:19;;;;;;;;;;;14.70;99.90;;;13.53;85.88;96109.44;10415053;28;2367;-78
2021/08/25 07:05:21;;;;;;;;;;;14.60;99.90;;;14.30;82.04;96111.34;10426014;28;2390;-81
2021/08/25 07:10:24;;;;;;;;;;;14.90;99.90;;;14.50;80.47;96110.31;10426917;28;2318;-78
2021/08/25 07:15:27;;;;;;;;;;;15.40;99.90;;;14.20;80.45;96112.28;10413917;28;2256;-80
2021/08/25 07:20:30;;;;;;;;;;;15.20;99.90;;;14.66;78.84;96102.81;10433834;28;2342;-79
2021/08/25 07:25:33;;;;;;;;;;;15.40;99.90;;;14.50;77.88;96105.72;10418037;28;2318;-79
2021/08/25 07:30:36;;;;;;;;;;;15.60;99.90;;;14.70;76.68;96117.38;10432208;28;2326;-79
2021/08/25 07:35:38;;;;;;;;;;;15.60;99.90;;;15.31;74.35;96114.56;10426110;28;2321;-80
2021/08/25 07:40:41;;;;;;;;;;;16.00;99.90;;;15.36;74.22;96111.00;10422454;28;2239;-78
2021/08/25 07:45:44;;;;;;;;;;;16.20;99.90;;;15.08;74.90;96110.09;10407349;28;2346;-78
2021/08/25 07:50:49;;;;;;;;;;;16.10;99.90;;;15.26;74.19;96119.25;10404079;28;2362;-78
2021/08/25 07:55:52;;;;;;;;;;;16.10;99.90;;;14.68;75.46;96114.16;10400591;28;2304;-77
2021/08/25 08:00:55;;;;;;;;;;;15.90;99.90;;;14.82;76.14;96112.31;10404950;28;2188;-80
2021/08/25 08:05:58;;;;;;;;;;;15.70;99.90;;;15.20;73.12;96106.91;10405193;28;2390;-77
2021/08/25 08:11:01;;;;;;;;;;;15.90;99.90;;;15.86;69.30;96109.34;10410082;28;2368;-78
2021/08/25 08:16:04;;;;;;;;;;;16.60;99.90;;;16.17;68.19;96106.06;10406925;28;2139;-78
2021/08/25 08:21:07;;;;;;;;;;;16.90;99.90;;;16.37;67.54;96130.09;10401974;28;2380;-78
2021/08/25 08:26:09;;;;;;;;;;;17.10;99.90;;;16.47;67.60;96108.16;10402104;28;2390;-80
2021/08/25 08:31:12;;;;;;;;;;;17.20;99.90;;;15.98;65.88;96122.44;10420246;28;2680;-81
2021/08/25 08:36:15;;;;;;;;;;;17.40;99.90;;;15.60;65.66;96117.09;10438234;28;2075;-79
2021/08/25 08:41:18;;;;;;;;;;;16.90;99.90;;;15.64;65.45;96122.75;10410540;28;2630;-81
2021/08/25 08:46:21;;;;;;;;;;;16.70;99.90;;;15.50;65.63;96116.44;10423877;28;2001;-78
2021/08/25 08:51:24;;;;;;;;;;;16.70;99.90;;;15.56;64.18;96120.69;10414273;28;2080;-78
2021/08/25 08:56:26;;;;;;;;;;;16.80;99.90;;;15.85;63.63;96106.94;10394619;28;1955;-77
2021/08/25 09:01:29;;;;;;;;;;;16.80;99.90;;;15.84;64.65;96110.72;10396397;28;1967;-78
2021/08/25 09:06:32;;;;;;;;;;;17.00;99.90;;;16.06;63.60;96113.59;10405218;28;1914;-76
2021/08/25 09:11:36;;;;;;;;;;;17.10;99.90;;;16.01;63.35;96100.13;10405683;28;2329;-77
2021/08/25 09:16:42;;;;;;;;;;;16.90;99.90;;;15.73;63.05;96102.00;10397973;28;2128;-79
2021/08/25 09:21:45;;;;;;;;;;;16.90;99.90;;;15.96;63.43;96102.91;10402984;28;2073;-77
2021/08/25 09:26:48;;;;;;;;;;;17.00;99.90;;;16.31;62.28;96097.94;10397280;28;1947;-77
2021/08/25 09:31:50;;;;;;;;;;;17.20;99.90;;;16.52;59.06;96087.47;10400027;28;1924;-80
2021/08/25 09:36:53;;;;;;;;;;;17.60;99.90;;;17.08;58.39;96094.41;10393945;28;2057;-78
2021/08/25 09:41:57;;;;;;;;;;;17.80;99.90;;;16.69;58.36;96093.06;10418956;28;2121;-77
2021/08/25 09:47:00;;;;;;;;;;;17.90;99.90;;;16.83;57.84;96090.34;10428705;28;1989;-80
2021/08/25 09:52:03;;;;;;;;;;;17.90;99.90;;;17.98;56.21;96076.13;10422908;28;2057;-81
2021/08/25 09:57:05;;;;;;;;;;;18.40;99.90;;;17.29;55.65;96080.03;10425824;28;2288;-80
2021/08/25 10:02:08;;;;;;;;;;;18.50;99.90;;;16.81;59.26;96073.56;10423686;28;2076;-79
2021/08/25 10:07:11;;;;;;;;;;;18.10;99.90;;;16.75;58.75;96070.97;10426423;28;2009;-79
2021/08/25 10:12:14;;;;;;;;;;;17.70;99.90;;;17.28;57.14;96059.41;10428167;28;1821;-80
2021/08/25 10:17:17;;;;;;;;;;;18.00;99.90;;;17.70;55.28;96045.59;10416528;28;2073;-78
2021/08/25 10:22:21;;;;;;;;;;;18.70;99.90;;;17.39;55.81;96054.53;10422616;28;1829;-78
2021/08/25 10:27:24;;;;;;;;;;;18.70;99.90;;;17.66;55.59;96041.88;10422593;28;1898;-79
2021/08/25 10:32:27;;;;;;;;;;;18.70;99.90;;;18.04;54.35;96034.88;10425061;28;1924;-77
2021/08/25 10:37:30;;;;;;;;;;;18.90;99.90;;;17.73;54.62;96032.19;10424153;28;2118;-79
2021/08/25 10:42:33;;;;;;;;;;;18.80;99.90;;;17.47;54.65;96026.59;10407638;28;2046;-77
2021/08/25 10:47:36;;;;;;;;;;;18.70;99.90;;;17.18;55.83;96029.78;10419513;28;2006;-80
2021/08/25 10:52:38;;;;;;;;;;;18.50;99.90;;;17.24;55.12;96012.25;10429705;28;2311;-78
2021/08/25 10:57:41;;;;;;;;;;;18.40;99.90;;;17.27;54.67;96006.19;10412095;28;2058;-78
2021/08/25 11:02:44;;;;;;;;;;;18.50;99.90;;;17.47;55.45;96001.34;10395050;28;2069;-79
2021/08/25 11:07:47;;;;;;;;;;;18.40;99.90;;;17.36;55.04;95995.34;10400813;28;1914;-79
2021/08/25 11:12:50;;;;;;;;;;;18.50;99.90;;;16.87;56.34;95990.91;10396242;28;2045;-79
2021/08/25 11:17:53;;;;;;;;;;;18.20;99.90;;;17.64;54.59;95987.84;10392619;28;1577;-79
2021/08/25 11:22:56;;;;;;;;;;;18.30;99.90;;;17.43;54.99;95978.59;10396024;28;2167;-78
2021/08/25 11:27:59;;;;;;;;;;;18.60;99.90;;;17.88;52.58;95983.94;10395635;28;1910;-79
2021/08/25 11:33:03;;;;;;;;;;;18.70;99.90;;;17.55;54.61;95976.91;10398432;28;1956;-78
2021/08/25 11:38:07;;;;;;;;;;;18.60;99.90;;;17.79;53.19;95968.41;10403503;28;2112;-78
2021/08/25 11:43:10;;;;;;;;;;;18.80;99.90;;;17.24;54.11;95967.94;10399537;28;2104;-80
2021/08/25 11:48:13;;;;;;;;;;;18.50;99.90;;;17.34;53.66;95956.84;10410022;28;1600;-77
2021/08/25 11:53:15;;;;;;;;;;;18.50;99.90;;;17.41;53.23;95961.81;10400912;28;2065;-80
2021/08/25 11:58:18;;;;;;;;;;;18.50;99.90;;;17.53;52.80;95959.31;10405842;28;1736;-79
2021/08/25 12:03:21;;;;;;;;;;;18.60;99.90;;;17.79;52.26;95962.97;10401708;28;2108;-80
2021/08/25 12:08:24;;;;;;;;;;;18.80;99.90;;;17.99;51.34;95949.91;10416216;28;1397;-79
2021/08/25 12:13:27;;;;;;;;;;;18.90;99.90;;;17.94;51.58;95950.88;10403869;28;2573;-78
2021/08/25 12:18:30;;;;;;;;;;;19.00;99.90;;;18.29;50.51;95953.66;10402504;28;2088;-77
2021/08/25 12:23:33;;;;;;;;;;;19.20;99.90;;;18.63;50.11;95936.53;10398730;28;2025;-78
2021/08/25 12:28:36;;;;;;;;;;;19.40;99.90;;;18.21;49.87;95941.66;10411744;28;1581;-78
2021/08/25 12:33:38;;;;;;;;;;;19.40;99.90;;;18.08;48.52;95937.94;10405605;28;1907;-78
2021/08/25 12:38:41;;;;;;;;;;;19.20;99.90;;;18.04;49.25;95936.16;10405039;28;1264;-78
2021/08/25 12:43:44;;;;;;;;;;;19.10;99.90;;;17.91;47.17;95926.22;10389908;28;2296;-79
2021/08/25 12:48:47;;;;;;;;;;;19.10;99.90;;;18.02;48.18;95922.88;10399393;28;2030;-79
2021/08/25 12:53:50;;;;;;;;;;;19.10;99.90;;;18.29;46.82;95915.56;10396399;28;2034;-79
2021/08/25 12:58:53;;;;;;;;;;;19.30;99.90;;;17.91;48.41;95912.63;10413904;28;1786;-78
2021/08/25 13:03:56;;;;;;;;;;;19.10;99.90;;;18.16;48.24;95920.03;10419985;28;2015;-80
2021/08/25 13:08:59;;;;;;;;;;;19.20;99.90;;;18.44;47.34;95906.09;10401844;28;1248;-80
2021/08/25 13:14:01;;;;;;;;;;;19.40;99.90;;;18.20;47.87;95901.16;10391209;28;2034;-79
2021/08/25 13:19:04;;;;;;;;;;;19.50;99.90;;;18.21;48.15;95909.00;10398076;28;1593;-79
2021/08/25 13:24:07;;;;;;;;;;;19.40;99.90;;;18.44;47.90;95895.22;10394500;28;2062;-80
2021/08/25 13:29:10;;;;;;;;;;;19.20;99.90;;;18.42;47.25;95886.59;10396010;28;1638;-80
2021/08/25 13:34:13;;;;;;;;;;;19.30;99.90;;;18.43;47.01;95890.91;10396910;28;1997;-78
2021/08/25 13:39:15;;;;;;;;;;;19.50;99.90;;;18.33;46.43;95879.22;10401986;28;1908;-79
2021/08/25 13:44:20;;;;;;;;;;;19.50;99.90;;;18.63;46.76;95871.19;10400965;28;1998;-78
2021/08/25 13:49:23;;;;;;;;;;;19.50;99.90;;;18.61;47.20;95870.72;10407349;28;1670;-79
2021/08/25 13:54:26;;;;;;;;;;;19.70;99.90;;;18.18;46.45;95876.97;10397929;28;1853;-79
2021/08/25 13:59:29;;;;;;;;;;;19.60;99.90;;;18.54;45.89;95870.41;10393574;28;1142;-78
2021/08/25 14:04:32;;;;;;;;;;;19.40;99.90;;;18.57;46.02;95867.81;10390632;28;2062;-77
2021/08/25 14:09:34;;;;;;;;;;;19.50;99.90;;;18.68;46.06;95864.81;10395094;28;1365;-80
2021/08/25 14:14:37;;;;;;;;;;;19.60;99.90;;;18.74;45.94;95852.63;10398256;28;1888;-79
2021/08/25 14:19:40;;;;;;;;;;;19.60;99.90;;;18.75;44.71;95849.56;10394608;28;1999;-79
2021/08/25 14:24:43;;;;;;;;;;;19.80;99.90;;;18.74;45.27;95850.72;10397780;28;1936;-79
2021/08/25 14:29:46;;;;;;;;;;;19.80;99.90;;;18.59;45.33;95841.09;10388449;28;3201;-81
2021/08/25 14:34:49;;;;;;;;;;;19.70;99.90;;;18.57;45.11;95828.91;10397589;28;2542;-78
2021/08/25 14:39:52;;;;;;;;;;;19.70;99.90;;;18.72;44.44;95822.22;10391753;28;1545;-79
2021/08/25 14:44:55;;;;;;;;;;;19.80;99.90;;;18.43;46.44;95820.13;10395026;28;2132;-79
2021/08/25 14:50:02;;;;;;;;;;;19.70;99.90;;;18.43;46.17;95817.41;10413519;28;1900;-78
2021/08/25 14:55:05;;;;;;;;;;;19.50;99.90;;;18.56;46.53;95821.88;10401477;28;2081;-79
2021/08/25 15:00:08;;;;;;;;;;;19.50;99.90;;;18.78;45.11;95812.75;10388388;28;2504;-78
2021/08/25 15:05:10;;;;;;;;;;;19.70;99.90;;;18.95;44.27;95818.13;10394311;28;1995;-78
2021/08/25 15:10:13;;;;;;;;;;;19.80;99.90;;;18.67;44.96;95811.47;10398288;28;1889;-78
2021/08/25 15:15:16;;;;;;;;;;;19.80;99.90;;;18.50;45.02;95810.34;10414170;28;2088;-74
2021/08/25 15:20:19;;;;;;;;;;;19.70;99.90;;;18.68;45.00;95804.91;10404551;28;2019;-79
2021/08/25 15:25:22;;;;;;;;;;;19.70;99.90;;;18.21;46.99;95800.16;10418567;28;2104;-76
2021/08/25 15:30:27;;;;;;;;;;;19.50;99.90;;;18.37;46.70;95793.09;10438121;28;1900;-79
2021/08/25 15:35:29;;;;;;;;;;;19.30;99.90;;;18.43;45.92;95803.81;10412854;28;2147;-78
2021/08/25 15:40:32;;;;;;;;;;;19.40;99.90;;;18.26;47.21;95791.84;10399955;28;2139;-76
2021/08/25 15:45:35;;;;;;;;;;;19.30;99.90;;;18.01;47.78;95795.38;10414349;28;2089;-77
2021/08/25 15:50:38;;;;;;;;;;;19.20;99.90;;;18.13;47.93;95795.50;10417263;28;2207;-79
2021/08/25 15:55:41;;;;;;;;;;;19.10;99.90;;;17.94;47.60;95793.13;10417467;28;2042;-78
2021/08/25 16:00:44;;;;;;;;;;;19.00;99.90;;;17.69;48.56;95791.97;10405024;28;2241;-78
2021/08/25 16:05:47;;;;;;;;;;;18.80;99.90;;;17.60;48.32;95785.72;10398984;28;2354;-78
2021/08/25 16:10:50;;;;;;;;;;;18.70;99.90;;;17.45;50.16;95783.47;10397543;28;2069;-76
2021/08/25 16:15:52;;;;;;;;;;;18.60;99.90;;;17.34;50.24;95771.28;10395486;28;2277;-81
2021/08/25 16:20:55;;;;;;;;;;;18.40;99.90;;;17.41;50.51;95774.31;10397384;28;1326;-80
2021/08/25 16:25:58;;;;;;;;;;;18.30;99.90;;;17.42;50.41;95767.78;10399780;28;2317;-79
2021/08/25 16:31:01;;;;;;;;;;;18.40;99.90;;;17.28;50.76;95759.75;10412449;28;2046;-78
2021/08/25 16:36:04;;;;;;;;;;;18.40;99.90;;;17.23;51.69;95749.84;10399697;28;2120;-78
2021/08/25 16:41:06;;;;;;;;;;;18.30;99.90;;;17.15;51.09;95753.34;10396525;28;2112;-76
2021/08/25 16:46:09;;;;;;;;;;;18.20;99.90;;;17.13;50.98;95755.56;10396048;28;3267;-78
2021/08/25 16:51:12;;;;;;;;;;;18.20;99.90;;;16.95;51.84;95743.06;10395458;28;2646;-76
2021/08/25 16:56:15;;;;;;;;;;;18.00;99.90;;;16.88;51.33;95737.28;10397457;28;2388;-79
2021/08/25 17:01:18;;;;;;;;;;;17.90;99.90;;;16.78;52.57;95738.34;10400347;28;2092;-78
2021/08/25 17:06:21;;;;;;;;;;;17.90;99.90;;;16.80;52.43;95728.00;10399757;28;2050;-79
2021/08/25 17:11:24;;;;;;;;;;;17.80;99.90;;;16.66;52.80;95738.91;10403093;28;2320;-79
2021/08/25 17:16:27;;;;;;;;;;;17.80;99.90;;;16.63;52.69;95734.13;10394258;28;1875;-79
2021/08/25 17:21:30;;;;;;;;;;;17.70;99.90;;;16.54;53.04;95727.88;10401616;28;2155;-79
2021/08/25 17:26:32;;;;;;;;;;;17.60;99.90;;;16.33;53.95;95726.78;10402444;28;1898;-79
2021/08/25 17:31:35;;;;;;;;;;;17.50;99.90;;;16.18;54.03;95720.66;10398977;28;2006;-79
2021/08/25 17:36:38;;;;;;;;;;;17.30;99.90;;;16.11;55.03;95719.50;10411722;28;2118;-80
2021/08/25 17:41:41;;;;;;;;;;;17.30;99.90;;;16.04;54.59;95713.72;10401253;28;1763;-78
2021/08/25 17:46:44;;;;;;;;;;;17.10;99.90;;;15.91;55.74;95723.53;10399268;28;1998;-79
2021/08/25 17:51:47;;;;;;;;;;;17.10;99.90;;;15.76;56.21;95721.16;10400627;28;2058;-78
2021/08/25 17:56:49;;;;;;;;;;;17.00;99.90;;;15.52;57.43;95726.81;10414420;28;1892;-78
2021/08/25 18:01:52;;;;;;;;;;;16.80;99.90;;;15.35;59.62;95722.06;10406343;28;2074;-80
2021/08/25 18:06:55;;;;;;;;;;;16.60;99.90;;;15.18;60.56;95725.41;10402866;28;1910;-79
2021/08/25 18:11:58;;;;;;;;;;;16.50;99.90;;;15.06;61.15;95728.63;10395338;28;1881;-80
2021/08/25 18:17:01;;;;;;;;;;;16.30;99.90;;;15.02;62.56;95737.69;10400173;28;2026;-78
2021/08/25 18:22:04;;;;;;;;;;;16.30;99.90;;;14.81;63.64;95732.66;10395043;28;1919;-78
2021/08/25 18:27:08;;;;;;;;;;;16.20;99.90;;;14.69;64.50;95736.97;10397737;28;2300;-78
2021/08/25 18:32:11;;;;;;;;;;;16.00;99.90;;;14.60;64.96;95743.09;10424348;28;2260;-79
2021/08/25 18:37:14;;;;;;;;;;;15.90;99.90;;;14.42;66.33;95743.13;10416646;28;2069;-78
2021/08/25 18:42:17;;;;;;;;;;;15.80;99.90;;;14.42;64.89;95751.25;10403318;28;2010;-79
2021/08/25 18:47:19;;;;;;;;;;;15.70;99.90;;;14.26;67.14;95746.13;10420124;28;2564;-80
2021/08/25 18:52:22;;;;;;;;;;;15.60;99.90;;;14.11;67.08;95743.66;10415873;28;1873;-78
2021/08/25 18:57:25;;;;;;;;;;;15.50;99.90;;;14.06;69.12;95743.78;10390700;28;2092;-79
2021/08/25 19:02:28;;;;;;;;;;;15.40;99.90;;;13.90;69.35;95732.41;10403257;28;1876;-77
2021/08/25 19:07:31;;;;;;;;;;;15.30;99.90;;;13.81;69.63;95727.97;10396363;28;1980;-79
2021/08/25 19:12:34;;;;;;;;;;;15.20;99.90;;;13.70;69.90;95732.72;10382397;28;2121;-78
2021/08/25 19:17:36;;;;;;;;;;;15.10;99.90;;;13.67;69.40;95725.19;10394070;28;1927;-79
2021/08/25 19:22:39;;;;;;;;;;;15.00;99.90;;;13.61;70.69;95727.16;10406021;28;2300;-78
2021/08/25 19:27:46;;;;;;;;;;;14.90;99.90;;;13.57;70.87;95736.16;10415457;28;1890;-79
2021/08/25 19:32:49;;;;;;;;;;;14.80;99.90;;;13.53;73.08;95728.63;10403450;28;2015;-82
2021/08/25 19:37:52;;;;;;;;;;;14.80;99.90;;;13.42;74.25;95739.88;10395820;28;2049;-79
2021/08/25 19:42:55;;;;;;;;;;;14.70;99.90;;;13.30;73.71;95743.03;10401400;28;2304;-79
2021/08/25 19:47:58;;;;;;;;;;;14.60;99.90;;;13.19;74.99;95745.03;10397100;28;2072;-79
2021/08/25 19:53:00;;;;;;;;;;;14.50;99.90;;;13.18;75.33;95742.63;10395024;28;2019;-79
2021/08/25 19:58:03;;;;;;;;;;;14.40;99.90;;;13.12;76.63;95735.69;10407157;28;1129;-79
2021/08/25 20:03:06;;;;;;;;;;;14.40;99.90;;;13.06;78.06;95731.47;10402129;28;2029;-79
2021/08/25 20:08:09;;;;;;;;;;;14.30;99.90;;;13.04;79.04;95736.31;10404158;28;2086;-80
2021/08/25 20:13:12;;;;;;;;;;;14.30;99.90;;;13.01;79.22;95728.81;10398976;28;1896;-80
2021/08/25 20:18:15;;;;;;;;;;;14.20;99.90;;;12.96;79.93;95721.59;10407019;28;2241;-80
2021/08/25 20:23:17;;;;;;;;;;;14.30;99.90;;;12.93;81.12;95727.56;10411972;28;1856;-79
2021/08/25 20:28:20;;;;;;;;;;;14.20;99.90;;;12.88;81.51;95724.94;10417430;28;1984;-79
2021/08/25 20:33:23;;;;;;;;;;;14.10;99.90;;;12.89;82.79;95727.34;10404867;28;2045;-75
2021/08/25 20:38:26;;;;;;;;;;;14.10;99.90;;;12.89;82.93;95727.34;10408630;28;2037;-79
2021/08/25 20:43:29;;;;;;;;;;;14.10;99.90;;;12.91;82.70;95719.75;10408540;28;2003;-79
2021/08/25 20:48:31;;;;;;;;;;;14.00;99.90;;;13.04;79.41;95722.81;10400641;28;2810;-79
2021/08/25 20:53:34;;;;;;;;;;;14.10;99.90;;;13.11;78.95;95707.09;10406941;28;1959;-79
2021/08/25 20:58:37;;;;;;;;;;;14.20;99.90;;;13.14;79.86;95698.41;10408985;28;2033;-80
2021/08/25 21:03:40;;;;;;;;;;;14.20;99.90;;;13.22;80.03;95689.69;10412402;28;2037;-79
2021/08/25 21:08:43;;;;;;;;;;;14.30;99.90;;;13.24;79.56;95688.31;10418072;28;1898;-80
2021/08/25 21:13:46;;;;;;;;;;;14.30;99.90;;;13.34;78.15;95684.66;10421036;28;1811;-79
2021/08/25 21:18:48;;;;;;;;;;;14.30;99.90;;;13.41;78.11;95684.28;10410859;28;2242;-79
2021/08/25 21:23:52;;;;;;;;;;;14.40;99.90;;;13.46;78.20;95673.41;10420152;28;1977;-81
2021/08/25 21:28:55;;;;;;;;;;;14.40;99.90;;;13.54;77.56;95678.13;10403066;28;2112;-79
2021/08/25 21:33:58;;;;;;;;;;;14.50;99.90;;;13.61;78.11;95665.06;10402224;28;2069;-80
2021/08/25 21:39:01;;;;;;;;;;;14.60;99.90;;;13.57;77.71;95657.84;10414196;28;2234;-80
2021/08/25 21:44:04;;;;;;;;;;;14.60;99.90;;;13.59;77.14;95655.66;10418816;28;2048;-79
2021/08/25 21:49:06;;;;;;;;;;;14.60;99.90;;;13.63;77.20;95653.97;10414212;28;1887;-79
2021/08/25 21:54:09;;;;;;;;;;;14.60;99.90;;;13.60;77.37;95651.84;10415740;28;1933;-80
2021/08/25 21:59:16;;;;;;;;;;;14.60;99.90;;;13.64;76.60;95647.47;10414556;28;1947;-81
2021/08/25 22:04:19;;;;;;;;;;;14.60;99.90;;;13.65;76.67;95643.66;10438819;28;1900;-79
2021/08/25 22:09:21;;;;;;;;;;;14.60;99.90;;;13.70;76.65;95643.59;10430453;28;2089;-79
2021/08/25 22:14:24;;;;;;;;;;;14.60;99.90;;;13.69;77.20;95642.00;10398940;28;1923;-79
2021/08/25 22:19:27;;;;;;;;;;;14.70;99.90;;;13.65;77.72;95638.25;10405789;28;2051;-80
2021/08/25 22:24:30;;;;;;;;;;;14.70;99.90;;;13.68;77.34;95624.19;10398568;28;1973;-79
2021/08/25 22:29:33;;;;;;;;;;;14.70;99.90;;;13.67;77.21;95617.16;10397331;28;1921;-79
2021/08/25 22:34:36;;;;;;;;;;;14.60;99.90;;;13.66;78.00;95620.97;10391231;28;2068;-77
2021/08/25 22:39:39;;;;;;;;;;;14.60;99.90;;;13.61;78.16;95629.13;10394084;28;2016;-79
2021/08/25 22:44:42;;;;;;;;;;;14.60;99.90;;;13.58;78.67;95627.03;10390287;28;2096;-77
2021/08/25 22:49:44;;;;;;;;;;;14.60;99.90;;;13.50;79.83;95623.94;10393894;28;1907;-79
2021/08/25 22:54:47;;;;;;;;;;;14.60;99.90;;;13.45;80.16;95599.69;10394191;28;2069;-79
2021/08/25 22:59:50;;;;;;;;;;;14.60;99.90;;;13.37;81.21;95600.38;10392858;28;1820;-79
2021/08/25 23:04:53;;;;;;;;;;;14.50;99.90;;;13.28;81.36;95598.63;10388733;28;2075;-80